sensor_id;sensor_type;location;lat;lon;timestamp;P1;durP1;ratioP1;P2;durP2;ratioP2
58222;SDS011;44020;50.890;15.796;2024-03-02T00:00:15;22.50;;;14.70;;
58222;SDS011;44020;50.890;15.796;2024-03-02T00:03:03;25.20;;;15.30;;
58222;SDS011;44020;50.890;15.796;2024-03-02T00:05:30;22.90;;;15.50;;
58222;SDS011;44020;50.890;15.796;2024-03-02T00:07:58;26.20;;;16.10;;
58222;SDS011;44020;50.890;15.796;2024-03-02T00:10:27;21.90;;;14.50;;
58222;SDS011;44020;50.890;15.796;2024-03-02T00:13:03;19.50;;;13.00;;
58222;SDS011;44020;50.890;15.796;2024-03-02T00:18:11;20.50;;;12.60;;
58222;SDS011;44020;50.890;15.796;2024-03-02T00:20:41;21.80;;;13.30;;
58222;SDS011;44020;50.890;15.796;2024-03-02T00:23:09;19.90;;;13.50;;
58222;SDS011;44020;50.890;15.796;2024-03-02T00:25:41;24.60;;;14.70;;
58222;SDS011;44020;50.890;15.796;2024-03-02T00:28:22;21.10;;;13.70;;
58222;SDS011;44020;50.890;15.796;2024-03-02T00:30:57;21.40;;;14.30;;
58222;SDS011;44020;50.890;15.796;2024-03-02T00:33:33;22.30;;;14.00;;
58222;SDS011;44020;50.890;15.796;2024-03-02T00:36:04;23.40;;;15.00;;
58222;SDS011;44020;50.890;15.796;2024-03-02T00:38:33;23.80;;;14.90;;
58222;SDS011;44020;50.890;15.796;2024-03-02T00:41:05;23.70;;;15.00;;
58222;SDS011;44020;50.890;15.796;2024-03-02T00:46:23;24.20;;;15.80;;
58222;SDS011;44020;50.890;15.796;2024-03-02T00:48:53;27.70;;;17.80;;
58222;SDS011;44020;50.890;15.796;2024-03-02T00:51:22;30.60;;;18.80;;
58222;SDS011;44020;50.890;15.796;2024-03-02T00:53:51;35.70;;;20.50;;
58222;SDS011;44020;50.890;15.796;2024-03-02T00:56:22;39.30;;;21.80;;
58222;SDS011;44020;50.890;15.796;2024-03-02T00:58:50;35.70;;;22.10;;
58222;SDS011;44020;50.890;15.796;2024-03-02T01:01:18;40.00;;;23.20;;
58222;SDS011;44020;50.890;15.796;2024-03-02T01:03:48;42.20;;;24.30;;
58222;SDS011;44020;50.890;15.796;2024-03-02T01:06:16;41.40;;;23.60;;
58222;SDS011;44020;50.890;15.796;2024-03-02T01:08:43;40.70;;;24.00;;
58222;SDS011;44020;50.890;15.796;2024-03-02T01:11:11;42.70;;;24.10;;
58222;SDS011;44020;50.890;15.796;2024-03-02T01:13:38;37.40;;;22.90;;
58222;SDS011;44020;50.890;15.796;2024-03-02T01:16:06;35.80;;;21.80;;
58222;SDS011;44020;50.890;15.796;2024-03-02T01:18:33;39.10;;;22.80;;
58222;SDS011;44020;50.890;15.796;2024-03-02T01:21:00;38.80;;;23.00;;
58222;SDS011;44020;50.890;15.796;2024-03-02T01:23:28;39.60;;;24.00;;
58222;SDS011;44020;50.890;15.796;2024-03-02T01:25:55;36.10;;;22.90;;
58222;SDS011;44020;50.890;15.796;2024-03-02T01:28:23;36.40;;;21.80;;
58222;SDS011;44020;50.890;15.796;2024-03-02T01:30:50;35.50;;;21.60;;
58222;SDS011;44020;50.890;15.796;2024-03-02T01:33:17;35.40;;;21.00;;
58222;SDS011;44020;50.890;15.796;2024-03-02T01:35:46;40.80;;;24.10;;
58222;SDS011;44020;50.890;15.796;2024-03-02T01:38:14;40.70;;;23.70;;
58222;SDS011;44020;50.890;15.796;2024-03-02T01:40:41;43.40;;;25.60;;
58222;SDS011;44020;50.890;15.796;2024-03-02T01:43:11;45.80;;;25.70;;
58222;SDS011;44020;50.890;15.796;2024-03-02T01:45:38;40.80;;;25.30;;
58222;SDS011;44020;50.890;15.796;2024-03-02T01:48:06;40.60;;;25.70;;
58222;SDS011;44020;50.890;15.796;2024-03-02T01:50:34;42.00;;;25.70;;
58222;SDS011;44020;50.890;15.796;2024-03-02T01:53:02;45.30;;;26.70;;
58222;SDS011;44020;50.890;15.796;2024-03-02T01:55:29;44.40;;;25.60;;
58222;SDS011;44020;50.890;15.796;2024-03-02T01:57:57;42.70;;;25.70;;
58222;SDS011;44020;50.890;15.796;2024-03-02T02:00:24;39.30;;;24.60;;
58222;SDS011;44020;50.890;15.796;2024-03-02T02:02:53;41.80;;;25.90;;
58222;SDS011;44020;50.890;15.796;2024-03-02T02:05:21;42.50;;;24.70;;
58222;SDS011;44020;50.890;15.796;2024-03-02T02:07:48;43.60;;;25.10;;
58222;SDS011;44020;50.890;15.796;2024-03-02T02:10:15;42.00;;;24.30;;
58222;SDS011;44020;50.890;15.796;2024-03-02T02:12:43;36.80;;;23.10;;
58222;SDS011;44020;50.890;15.796;2024-03-02T02:15:26;37.50;;;22.90;;
58222;SDS011;44020;50.890;15.796;2024-03-02T02:17:55;38.80;;;22.70;;
58222;SDS011;44020;50.890;15.796;2024-03-02T02:20:24;39.50;;;22.80;;
58222;SDS011;44020;50.890;15.796;2024-03-02T02:23:01;36.90;;;23.70;;
58222;SDS011;44020;50.890;15.796;2024-03-02T02:25:30;40.40;;;23.70;;
58222;SDS011;44020;50.890;15.796;2024-03-02T02:27:57;40.50;;;22.90;;
58222;SDS011;44020;50.890;15.796;2024-03-02T02:30:28;35.50;;;23.40;;
58222;SDS011;44020;50.890;15.796;2024-03-02T02:32:57;35.40;;;21.60;;
58222;SDS011;44020;50.890;15.796;2024-03-02T02:35:25;39.10;;;23.70;;
58222;SDS011;44020;50.890;15.796;2024-03-02T02:37:53;37.20;;;23.40;;
58222;SDS011;44020;50.890;15.796;2024-03-02T02:40:21;37.80;;;23.30;;
58222;SDS011;44020;50.890;15.796;2024-03-02T02:42:48;39.00;;;23.30;;
58222;SDS011;44020;50.890;15.796;2024-03-02T02:45:16;37.60;;;23.20;;
58222;SDS011;44020;50.890;15.796;2024-03-02T02:47:44;36.90;;;23.00;;
58222;SDS011;44020;50.890;15.796;2024-03-02T02:50:11;34.90;;;21.40;;
58222;SDS011;44020;50.890;15.796;2024-03-02T02:52:39;36.10;;;21.30;;
58222;SDS011;44020;50.890;15.796;2024-03-02T02:55:11;34.00;;;21.20;;
58222;SDS011;44020;50.890;15.796;2024-03-02T02:57:40;36.10;;;21.50;;
58222;SDS011;44020;50.890;15.796;2024-03-02T03:02:37;34.00;;;21.50;;
58222;SDS011;44020;50.890;15.796;2024-03-02T03:05:05;37.10;;;21.70;;
58222;SDS011;44020;50.890;15.796;2024-03-02T03:07:34;37.40;;;22.70;;
58222;SDS011;44020;50.890;15.796;2024-03-02T03:10:04;38.00;;;22.50;;
58222;SDS011;44020;50.890;15.796;2024-03-02T03:12:32;37.30;;;22.50;;
58222;SDS011;44020;50.890;15.796;2024-03-02T03:15:01;38.70;;;23.00;;
58222;SDS011;44020;50.890;15.796;2024-03-02T03:17:31;36.60;;;22.90;;
58222;SDS011;44020;50.890;15.796;2024-03-02T03:19:58;38.50;;;23.10;;
58222;SDS011;44020;50.890;15.796;2024-03-02T03:22:26;39.40;;;24.70;;
58222;SDS011;44020;50.890;15.796;2024-03-02T03:24:54;39.00;;;24.00;;
58222;SDS011;44020;50.890;15.796;2024-03-02T03:27:21;38.30;;;24.50;;
58222;SDS011;44020;50.890;15.796;2024-03-02T03:29:49;43.20;;;24.90;;
58222;SDS011;44020;50.890;15.796;2024-03-02T03:32:16;40.20;;;24.70;;
58222;SDS011;44020;50.890;15.796;2024-03-02T03:34:43;43.10;;;25.30;;
58222;SDS011;44020;50.890;15.796;2024-03-02T03:37:11;44.10;;;25.20;;
58222;SDS011;44020;50.890;15.796;2024-03-02T03:39:38;44.30;;;24.60;;
58222;SDS011;44020;50.890;15.796;2024-03-02T03:42:06;42.80;;;25.50;;
58222;SDS011;44020;50.890;15.796;2024-03-02T03:44:33;44.70;;;25.70;;
58222;SDS011;44020;50.890;15.796;2024-03-02T03:47:00;41.30;;;24.20;;
58222;SDS011;44020;50.890;15.796;2024-03-02T03:49:29;44.20;;;25.90;;
58222;SDS011;44020;50.890;15.796;2024-03-02T03:51:56;44.40;;;24.60;;
58222;SDS011;44020;50.890;15.796;2024-03-02T03:54:23;40.90;;;23.80;;
58222;SDS011;44020;50.890;15.796;2024-03-02T03:56:50;38.30;;;22.60;;
58222;SDS011;44020;50.890;15.796;2024-03-02T03:59:18;36.60;;;22.70;;
58222;SDS011;44020;50.890;15.796;2024-03-02T04:01:45;37.30;;;21.90;;
58222;SDS011;44020;50.890;15.796;2024-03-02T04:04:12;39.10;;;23.20;;
58222;SDS011;44020;50.890;15.796;2024-03-02T04:06:40;38.50;;;23.40;;
58222;SDS011;44020;50.890;15.796;2024-03-02T04:09:07;39.00;;;23.50;;
58222;SDS011;44020;50.890;15.796;2024-03-02T04:11:34;36.70;;;22.70;;
58222;SDS011;44020;50.890;15.796;2024-03-02T04:14:02;40.20;;;23.00;;
58222;SDS011;44020;50.890;15.796;2024-03-02T04:16:29;35.70;;;21.90;;
58222;SDS011;44020;50.890;15.796;2024-03-02T04:18:56;38.50;;;22.70;;
58222;SDS011;44020;50.890;15.796;2024-03-02T04:21:23;39.70;;;22.50;;
58222;SDS011;44020;50.890;15.796;2024-03-02T04:23:50;41.90;;;25.00;;
58222;SDS011;44020;50.890;15.796;2024-03-02T04:26:18;42.00;;;26.20;;
58222;SDS011;44020;50.890;15.796;2024-03-02T04:28:49;41.00;;;24.40;;
58222;SDS011;44020;50.890;15.796;2024-03-02T04:31:16;41.10;;;24.30;;
58222;SDS011;44020;50.890;15.796;2024-03-02T04:33:43;39.60;;;23.60;;
58222;SDS011;44020;50.890;15.796;2024-03-02T04:36:11;41.20;;;25.10;;
58222;SDS011;44020;50.890;15.796;2024-03-02T04:38:38;39.00;;;23.80;;
58222;SDS011;44020;50.890;15.796;2024-03-02T04:41:06;38.00;;;23.20;;
58222;SDS011;44020;50.890;15.796;2024-03-02T04:43:34;40.90;;;22.80;;
58222;SDS011;44020;50.890;15.796;2024-03-02T04:46:02;39.50;;;24.60;;
58222;SDS011;44020;50.890;15.796;2024-03-02T04:48:29;41.30;;;24.40;;
58222;SDS011;44020;50.890;15.796;2024-03-02T04:50:56;39.70;;;24.90;;
58222;SDS011;44020;50.890;15.796;2024-03-02T04:53:23;42.80;;;25.30;;
58222;SDS011;44020;50.890;15.796;2024-03-02T04:55:50;38.70;;;24.20;;
58222;SDS011;44020;50.890;15.796;2024-03-02T04:58:21;42.70;;;23.90;;
58222;SDS011;44020;50.890;15.796;2024-03-02T05:00:48;38.60;;;24.10;;
58222;SDS011;44020;50.890;15.796;2024-03-02T05:03:15;36.40;;;23.70;;
58222;SDS011;44020;50.890;15.796;2024-03-02T05:05:43;37.60;;;22.60;;
58222;SDS011;44020;50.890;15.796;2024-03-02T05:08:11;39.80;;;23.80;;
58222;SDS011;44020;50.890;15.796;2024-03-02T05:10:39;39.50;;;23.60;;
58222;SDS011;44020;50.890;15.796;2024-03-02T05:13:06;37.10;;;22.50;;
58222;SDS011;44020;50.890;15.796;2024-03-02T05:15:34;36.20;;;23.30;;
58222;SDS011;44020;50.890;15.796;2024-03-02T05:18:01;35.30;;;22.70;;
58222;SDS011;44020;50.890;15.796;2024-03-02T05:20:31;35.60;;;22.60;;
58222;SDS011;44020;50.890;15.796;2024-03-02T05:22:58;38.20;;;23.50;;
58222;SDS011;44020;50.890;15.796;2024-03-02T05:25:26;37.30;;;22.70;;
58222;SDS011;44020;50.890;15.796;2024-03-02T05:27:53;37.80;;;24.00;;
58222;SDS011;44020;50.890;15.796;2024-03-02T05:30:21;41.80;;;24.90;;
58222;SDS011;44020;50.890;15.796;2024-03-02T05:32:48;40.20;;;24.30;;
58222;SDS011;44020;50.890;15.796;2024-03-02T05:35:15;36.50;;;22.60;;
58222;SDS011;44020;50.890;15.796;2024-03-02T05:37:42;37.10;;;23.40;;
58222;SDS011;44020;50.890;15.796;2024-03-02T05:40:09;41.40;;;24.30;;
58222;SDS011;44020;50.890;15.796;2024-03-02T05:42:38;38.30;;;23.80;;
58222;SDS011;44020;50.890;15.796;2024-03-02T05:45:05;38.80;;;24.20;;
58222;SDS011;44020;50.890;15.796;2024-03-02T05:47:33;40.10;;;23.20;;
58222;SDS011;44020;50.890;15.796;2024-03-02T05:50:00;36.50;;;23.80;;
58222;SDS011;44020;50.890;15.796;2024-03-02T05:52:28;37.40;;;22.30;;
58222;SDS011;44020;50.890;15.796;2024-03-02T05:54:55;35.90;;;23.40;;
58222;SDS011;44020;50.890;15.796;2024-03-02T05:57:22;35.70;;;22.90;;
58222;SDS011;44020;50.890;15.796;2024-03-02T06:00:07;38.80;;;23.30;;
58222;SDS011;44020;50.890;15.796;2024-03-02T06:02:38;34.40;;;22.60;;
58222;SDS011;44020;50.890;15.796;2024-03-02T06:05:06;33.70;;;21.50;;
58222;SDS011;44020;50.890;15.796;2024-03-02T06:07:36;35.60;;;22.30;;
58222;SDS011;44020;50.890;15.796;2024-03-02T06:10:03;38.40;;;23.40;;
58222;SDS011;44020;50.890;15.796;2024-03-02T06:12:31;36.50;;;22.50;;
58222;SDS011;44020;50.890;15.796;2024-03-02T06:14:59;33.20;;;20.80;;
58222;SDS011;44020;50.890;15.796;2024-03-02T06:17:26;34.20;;;20.80;;
58222;SDS011;44020;50.890;15.796;2024-03-02T06:19:53;30.30;;;20.70;;
58222;SDS011;44020;50.890;15.796;2024-03-02T06:22:20;33.60;;;20.80;;
58222;SDS011;44020;50.890;15.796;2024-03-02T06:24:50;32.70;;;21.30;;
58222;SDS011;44020;50.890;15.796;2024-03-02T06:27:17;30.60;;;19.60;;
58222;SDS011;44020;50.890;15.796;2024-03-02T06:29:45;29.80;;;19.40;;
58222;SDS011;44020;50.890;15.796;2024-03-02T06:32:12;31.00;;;20.20;;
58222;SDS011;44020;50.890;15.796;2024-03-02T06:34:39;31.70;;;19.90;;
58222;SDS011;44020;50.890;15.796;2024-03-02T06:37:06;30.80;;;19.20;;
58222;SDS011;44020;50.890;15.796;2024-03-02T06:39:33;29.60;;;19.00;;
58222;SDS011;44020;50.890;15.796;2024-03-02T06:42:01;30.50;;;19.60;;
58222;SDS011;44020;50.890;15.796;2024-03-02T06:44:28;32.70;;;19.80;;
58222;SDS011;44020;50.890;15.796;2024-03-02T06:46:55;30.40;;;18.80;;
58222;SDS011;44020;50.890;15.796;2024-03-02T06:49:22;29.80;;;18.70;;
58222;SDS011;44020;50.890;15.796;2024-03-02T06:51:49;28.30;;;18.80;;
58222;SDS011;44020;50.890;15.796;2024-03-02T06:54:17;31.10;;;18.50;;
58222;SDS011;44020;50.890;15.796;2024-03-02T06:56:44;31.40;;;19.70;;
58222;SDS011;44020;50.890;15.796;2024-03-02T06:59:11;25.70;;;16.60;;
58222;SDS011;44020;50.890;15.796;2024-03-02T07:01:38;26.10;;;16.70;;
58222;SDS011;44020;50.890;15.796;2024-03-02T07:04:06;23.20;;;15.10;;
58222;SDS011;44020;50.890;15.796;2024-03-02T07:06:33;22.50;;;15.20;;
58222;SDS011;44020;50.890;15.796;2024-03-02T07:09:00;26.90;;;16.30;;
58222;SDS011;44020;50.890;15.796;2024-03-02T07:11:28;27.30;;;16.40;;
58222;SDS011;44020;50.890;15.796;2024-03-02T07:13:55;24.60;;;15.50;;
58222;SDS011;44020;50.890;15.796;2024-03-02T07:16:22;26.50;;;16.90;;
58222;SDS011;44020;50.890;15.796;2024-03-02T07:18:58;25.30;;;16.50;;
58222;SDS011;44020;50.890;15.796;2024-03-02T07:21:25;27.20;;;17.30;;
58222;SDS011;44020;50.890;15.796;2024-03-02T07:23:53;27.80;;;17.90;;
58222;SDS011;44020;50.890;15.796;2024-03-02T07:26:20;31.70;;;18.50;;
58222;SDS011;44020;50.890;15.796;2024-03-02T07:28:47;29.00;;;19.00;;
58222;SDS011;44020;50.890;15.796;2024-03-02T07:31:15;28.20;;;17.90;;
58222;SDS011;44020;50.890;15.796;2024-03-02T07:33:45;28.70;;;18.10;;
58222;SDS011;44020;50.890;15.796;2024-03-02T07:36:13;28.50;;;18.10;;
58222;SDS011;44020;50.890;15.796;2024-03-02T07:38:42;29.20;;;18.10;;
58222;SDS011;44020;50.890;15.796;2024-03-02T07:41:11;28.10;;;18.00;;
58222;SDS011;44020;50.890;15.796;2024-03-02T07:43:39;28.10;;;18.40;;
58222;SDS011;44020;50.890;15.796;2024-03-02T07:46:06;30.70;;;18.40;;
58222;SDS011;44020;50.890;15.796;2024-03-02T07:48:34;30.00;;;19.30;;
58222;SDS011;44020;50.890;15.796;2024-03-02T07:51:01;32.40;;;19.10;;
58222;SDS011;44020;50.890;15.796;2024-03-02T07:53:29;30.50;;;18.60;;
58222;SDS011;44020;50.890;15.796;2024-03-02T07:55:56;28.50;;;18.30;;
58222;SDS011;44020;50.890;15.796;2024-03-02T07:58:28;29.80;;;19.00;;
58222;SDS011;44020;50.890;15.796;2024-03-02T08:00:56;28.60;;;18.50;;
58222;SDS011;44020;50.890;15.796;2024-03-02T08:03:24;27.40;;;17.80;;
58222;SDS011;44020;50.890;15.796;2024-03-02T08:05:52;25.60;;;17.50;;
58222;SDS011;44020;50.890;15.796;2024-03-02T08:08:19;25.10;;;17.00;;
58222;SDS011;44020;50.890;15.796;2024-03-02T08:10:47;26.80;;;16.80;;
58222;SDS011;44020;50.890;15.796;2024-03-02T08:13:15;25.50;;;17.00;;
58222;SDS011;44020;50.890;15.796;2024-03-02T08:15:43;25.70;;;18.20;;
58222;SDS011;44020;50.890;15.796;2024-03-02T08:18:10;26.00;;;16.70;;
58222;SDS011;44020;50.890;15.796;2024-03-02T08:20:37;27.50;;;17.10;;
58222;SDS011;44020;50.890;15.796;2024-03-02T08:23:05;25.20;;;16.60;;
58222;SDS011;44020;50.890;15.796;2024-03-02T08:25:33;27.10;;;17.50;;
58222;SDS011;44020;50.890;15.796;2024-03-02T08:28:00;30.00;;;19.30;;
58222;SDS011;44020;50.890;15.796;2024-03-02T08:30:27;31.60;;;19.80;;
58222;SDS011;44020;50.890;15.796;2024-03-02T08:32:54;32.30;;;20.90;;
58222;SDS011;44020;50.890;15.796;2024-03-02T08:35:22;31.60;;;20.20;;
58222;SDS011;44020;50.890;15.796;2024-03-02T08:37:49;29.80;;;20.00;;
58222;SDS011;44020;50.890;15.796;2024-03-02T08:40:17;29.40;;;19.70;;
58222;SDS011;44020;50.890;15.796;2024-03-02T08:42:44;29.30;;;18.70;;
58222;SDS011;44020;50.890;15.796;2024-03-02T08:45:12;30.70;;;18.80;;
58222;SDS011;44020;50.890;15.796;2024-03-02T08:47:40;30.70;;;19.40;;
58222;SDS011;44020;50.890;15.796;2024-03-02T08:50:07;32.30;;;20.30;;
58222;SDS011;44020;50.890;15.796;2024-03-02T08:52:36;27.40;;;17.70;;
58222;SDS011;44020;50.890;15.796;2024-03-02T08:55:03;30.10;;;19.30;;
58222;SDS011;44020;50.890;15.796;2024-03-02T08:57:31;31.00;;;20.10;;
58222;SDS011;44020;50.890;15.796;2024-03-02T08:59:58;31.80;;;20.90;;
58222;SDS011;44020;50.890;15.796;2024-03-02T09:02:26;34.60;;;22.10;;
58222;SDS011;44020;50.890;15.796;2024-03-02T09:04:54;34.20;;;21.70;;
58222;SDS011;44020;50.890;15.796;2024-03-02T09:07:21;32.80;;;21.20;;
58222;SDS011;44020;50.890;15.796;2024-03-02T09:09:49;29.00;;;19.70;;
58222;SDS011;44020;50.890;15.796;2024-03-02T09:12:16;30.90;;;20.10;;
58222;SDS011;44020;50.890;15.796;2024-03-02T09:14:43;34.60;;;21.30;;
58222;SDS011;44020;50.890;15.796;2024-03-02T09:17:11;31.50;;;20.50;;
58222;SDS011;44020;50.890;15.796;2024-03-02T09:19:39;29.80;;;20.70;;
58222;SDS011;44020;50.890;15.796;2024-03-02T09:22:06;30.40;;;20.60;;
58222;SDS011;44020;50.890;15.796;2024-03-02T09:24:36;29.30;;;19.40;;
58222;SDS011;44020;50.890;15.796;2024-03-02T09:27:03;28.20;;;19.50;;
58222;SDS011;44020;50.890;15.796;2024-03-02T09:29:31;28.10;;;19.80;;
58222;SDS011;44020;50.890;15.796;2024-03-02T09:31:58;31.00;;;20.00;;
58222;SDS011;44020;50.890;15.796;2024-03-02T09:34:25;29.70;;;19.00;;
58222;SDS011;44020;50.890;15.796;2024-03-02T09:36:53;28.40;;;18.80;;
58222;SDS011;44020;50.890;15.796;2024-03-02T09:39:20;26.90;;;17.80;;
58222;SDS011;44020;50.890;15.796;2024-03-02T09:41:48;27.50;;;17.50;;
58222;SDS011;44020;50.890;15.796;2024-03-02T09:44:15;25.40;;;17.20;;
58222;SDS011;44020;50.890;15.796;2024-03-02T09:46:43;26.10;;;16.40;;
58222;SDS011;44020;50.890;15.796;2024-03-02T09:49:10;26.20;;;16.90;;
58222;SDS011;44020;50.890;15.796;2024-03-02T09:51:38;25.80;;;17.10;;
58222;SDS011;44020;50.890;15.796;2024-03-02T09:54:07;27.70;;;17.60;;
58222;SDS011;44020;50.890;15.796;2024-03-02T09:56:35;24.30;;;15.50;;
58222;SDS011;44020;50.890;15.796;2024-03-02T09:59:02;23.80;;;15.70;;
58222;SDS011;44020;50.890;15.796;2024-03-02T10:01:30;23.20;;;15.60;;
58222;SDS011;44020;50.890;15.796;2024-03-02T10:04:01;23.70;;;15.00;;
58222;SDS011;44020;50.890;15.796;2024-03-02T10:06:31;24.30;;;15.40;;
58222;SDS011;44020;50.890;15.796;2024-03-02T10:08:58;27.50;;;15.40;;
58222;SDS011;44020;50.890;15.796;2024-03-02T10:14:03;22.10;;;15.00;;
58222;SDS011;44020;50.890;15.796;2024-03-02T10:16:39;23.30;;;15.10;;
58222;SDS011;44020;50.890;15.796;2024-03-02T10:19:17;24.10;;;14.60;;
58222;SDS011;44020;50.890;15.796;2024-03-02T10:21:46;21.70;;;14.80;;
58222;SDS011;44020;50.890;15.796;2024-03-02T10:24:14;23.30;;;16.20;;
58222;SDS011;44020;50.890;15.796;2024-03-02T10:26:41;24.30;;;16.40;;
58222;SDS011;44020;50.890;15.796;2024-03-02T10:29:10;23.90;;;15.40;;
58222;SDS011;44020;50.890;15.796;2024-03-02T10:31:37;24.10;;;17.00;;
58222;SDS011;44020;50.890;15.796;2024-03-02T10:34:06;22.40;;;14.70;;
58222;SDS011;44020;50.890;15.796;2024-03-02T10:36:35;22.40;;;14.20;;
58222;SDS011;44020;50.890;15.796;2024-03-02T10:39:03;20.60;;;13.70;;
58222;SDS011;44020;50.890;15.796;2024-03-02T10:41:32;21.40;;;14.70;;
58222;SDS011;44020;50.890;15.796;2024-03-02T10:44:01;24.90;;;16.90;;
58222;SDS011;44020;50.890;15.796;2024-03-02T10:46:30;23.10;;;17.00;;
58222;SDS011;44020;50.890;15.796;2024-03-02T10:48:59;27.00;;;18.30;;
58222;SDS011;44020;50.890;15.796;2024-03-02T10:51:28;24.50;;;17.40;;
58222;SDS011;44020;50.890;15.796;2024-03-02T10:53:59;25.40;;;17.80;;
58222;SDS011;44020;50.890;15.796;2024-03-02T10:56:31;29.00;;;17.40;;
58222;SDS011;44020;50.890;15.796;2024-03-02T11:02:01;24.10;;;16.30;;
58222;SDS011;44020;50.890;15.796;2024-03-02T11:04:30;22.70;;;14.90;;
58222;SDS011;44020;50.890;15.796;2024-03-02T11:07:05;20.20;;;14.00;;
58222;SDS011;44020;50.890;15.796;2024-03-02T11:09:35;20.30;;;14.70;;
58222;SDS011;44020;50.890;15.796;2024-03-02T11:14:42;20.30;;;13.40;;
58222;SDS011;44020;50.890;15.796;2024-03-02T11:17:13;21.40;;;14.50;;
58222;SDS011;44020;50.890;15.796;2024-03-02T11:19:44;20.80;;;14.20;;
58222;SDS011;44020;50.890;15.796;2024-03-02T11:22:13;20.40;;;13.40;;
58222;SDS011;44020;50.890;15.796;2024-03-02T11:24:48;19.50;;;14.00;;
58222;SDS011;44020;50.890;15.796;2024-03-02T11:33:02;19.10;;;13.90;;
58222;SDS011;44020;50.890;15.796;2024-03-02T11:35:43;22.20;;;15.20;;
58222;SDS011;44020;50.890;15.796;2024-03-02T11:38:15;22.50;;;15.30;;
58222;SDS011;44020;50.890;15.796;2024-03-02T11:40:44;23.20;;;14.80;;
58222;SDS011;44020;50.890;15.796;2024-03-02T11:43:12;20.60;;;14.90;;
58222;SDS011;44020;50.890;15.796;2024-03-02T11:45:39;23.90;;;15.40;;
58222;SDS011;44020;50.890;15.796;2024-03-02T11:48:14;22.20;;;16.00;;
58222;SDS011;44020;50.890;15.796;2024-03-02T11:50:49;23.60;;;14.90;;
58222;SDS011;44020;50.890;15.796;2024-03-02T11:53:17;21.70;;;15.00;;
58222;SDS011;44020;50.890;15.796;2024-03-02T11:55:45;21.10;;;14.30;;
58222;SDS011;44020;50.890;15.796;2024-03-02T11:58:13;21.60;;;14.60;;
58222;SDS011;44020;50.890;15.796;2024-03-02T12:00:43;20.00;;;13.60;;
58222;SDS011;44020;50.890;15.796;2024-03-02T12:03:12;20.70;;;14.70;;
58222;SDS011;44020;50.890;15.796;2024-03-02T12:05:40;22.20;;;13.80;;
58222;SDS011;44020;50.890;15.796;2024-03-02T12:08:08;23.20;;;14.60;;
58222;SDS011;44020;50.890;15.796;2024-03-02T12:10:39;22.60;;;14.70;;
58222;SDS011;44020;50.890;15.796;2024-03-02T12:13:07;23.30;;;15.10;;
58222;SDS011;44020;50.890;15.796;2024-03-02T12:15:38;22.30;;;14.70;;
58222;SDS011;44020;50.890;15.796;2024-03-02T12:18:06;21.70;;;13.20;;
58222;SDS011;44020;50.890;15.796;2024-03-02T12:20:33;21.60;;;13.50;;
58222;SDS011;44020;50.890;15.796;2024-03-02T12:23:02;22.60;;;13.20;;
58222;SDS011;44020;50.890;15.796;2024-03-02T12:25:31;19.00;;;13.80;;
58222;SDS011;44020;50.890;15.796;2024-03-02T12:28:02;19.20;;;12.80;;
58222;SDS011;44020;50.890;15.796;2024-03-02T12:30:30;22.60;;;13.90;;
58222;SDS011;44020;50.890;15.796;2024-03-02T12:33:02;20.70;;;13.40;;
58222;SDS011;44020;50.890;15.796;2024-03-02T12:35:29;16.60;;;12.90;;
58222;SDS011;44020;50.890;15.796;2024-03-02T12:37:56;19.60;;;12.70;;
58222;SDS011;44020;50.890;15.796;2024-03-02T12:40:24;19.80;;;12.50;;
58222;SDS011;44020;50.890;15.796;2024-03-02T12:42:51;20.50;;;13.20;;
58222;SDS011;44020;50.890;15.796;2024-03-02T12:45:18;23.70;;;14.00;;
58222;SDS011;44020;50.890;15.796;2024-03-02T12:47:52;20.80;;;13.00;;
58222;SDS011;44020;50.890;15.796;2024-03-02T12:50:19;21.60;;;13.50;;
58222;SDS011;44020;50.890;15.796;2024-03-02T12:52:54;19.10;;;12.60;;
58222;SDS011;44020;50.890;15.796;2024-03-02T12:55:22;20.00;;;13.00;;
58222;SDS011;44020;50.890;15.796;2024-03-02T12:57:50;16.80;;;12.00;;
58222;SDS011;44020;50.890;15.796;2024-03-02T13:00:19;18.70;;;13.20;;
58222;SDS011;44020;50.890;15.796;2024-03-02T13:02:47;18.70;;;12.30;;
58222;SDS011;44020;50.890;15.796;2024-03-02T13:05:18;19.70;;;12.40;;
58222;SDS011;44020;50.890;15.796;2024-03-02T13:07:46;18.70;;;12.40;;
58222;SDS011;44020;50.890;15.796;2024-03-02T13:10:14;20.40;;;12.40;;
58222;SDS011;44020;50.890;15.796;2024-03-02T13:12:42;17.90;;;12.50;;
58222;SDS011;44020;50.890;15.796;2024-03-02T13:15:09;18.80;;;11.70;;
58222;SDS011;44020;50.890;15.796;2024-03-02T13:17:37;19.80;;;12.00;;
58222;SDS011;44020;50.890;15.796;2024-03-02T13:20:06;18.70;;;12.40;;
58222;SDS011;44020;50.890;15.796;2024-03-02T13:22:37;17.40;;;12.30;;
58222;SDS011;44020;50.890;15.796;2024-03-02T13:25:04;19.20;;;12.70;;
58222;SDS011;44020;50.890;15.796;2024-03-02T13:27:32;18.60;;;11.80;;
58222;SDS011;44020;50.890;15.796;2024-03-02T13:29:59;21.60;;;12.60;;
58222;SDS011;44020;50.890;15.796;2024-03-02T13:32:29;18.20;;;11.40;;
58222;SDS011;44020;50.890;15.796;2024-03-02T13:34:56;16.60;;;11.50;;
58222;SDS011;44020;50.890;15.796;2024-03-02T13:37:23;17.40;;;11.80;;
58222;SDS011;44020;50.890;15.796;2024-03-02T13:39:50;18.20;;;12.00;;
58222;SDS011;44020;50.890;15.796;2024-03-02T13:42:18;19.50;;;12.30;;
58222;SDS011;44020;50.890;15.796;2024-03-02T13:44:45;19.80;;;12.80;;
58222;SDS011;44020;50.890;15.796;2024-03-02T13:47:15;18.80;;;12.90;;
58222;SDS011;44020;50.890;15.796;2024-03-02T13:49:42;24.20;;;13.80;;
58222;SDS011;44020;50.890;15.796;2024-03-02T13:52:13;18.00;;;12.60;;
58222;SDS011;44020;50.890;15.796;2024-03-02T13:54:41;19.80;;;12.80;;
58222;SDS011;44020;50.890;15.796;2024-03-02T13:57:13;20.20;;;13.20;;
58222;SDS011;44020;50.890;15.796;2024-03-02T13:59:41;20.00;;;12.90;;
58222;SDS011;44020;50.890;15.796;2024-03-02T14:02:09;21.60;;;12.90;;
58222;SDS011;44020;50.890;15.796;2024-03-02T14:04:38;21.50;;;12.80;;
58222;SDS011;44020;50.890;15.796;2024-03-02T14:07:06;19.80;;;13.50;;
58222;SDS011;44020;50.890;15.796;2024-03-02T14:09:34;24.70;;;14.40;;
58222;SDS011;44020;50.890;15.796;2024-03-02T14:12:01;23.10;;;14.60;;
58222;SDS011;44020;50.890;15.796;2024-03-02T14:14:29;21.10;;;13.60;;
58222;SDS011;44020;50.890;15.796;2024-03-02T14:16:57;23.10;;;15.20;;
58222;SDS011;44020;50.890;15.796;2024-03-02T14:19:30;22.20;;;14.50;;
58222;SDS011;44020;50.890;15.796;2024-03-02T14:22:02;22.40;;;15.00;;
58222;SDS011;44020;50.890;15.796;2024-03-02T14:24:29;22.70;;;14.30;;
58222;SDS011;44020;50.890;15.796;2024-03-02T14:26:56;21.60;;;13.90;;
58222;SDS011;44020;50.890;15.796;2024-03-02T14:29:28;21.30;;;13.70;;
58222;SDS011;44020;50.890;15.796;2024-03-02T14:31:56;20.80;;;14.20;;
58222;SDS011;44020;50.890;15.796;2024-03-02T14:34:23;23.30;;;14.10;;
58222;SDS011;44020;50.890;15.796;2024-03-02T14:36:50;31.30;;;19.20;;